Weather reports worldwide

Advertisment
Cartagena, Spain (8434): temperature & dewpoint: 06.12.2019 11:00:00 - 12.12.2019 11:00:00 (CET)Cartagena, Spain (8434): wind speed & gusts: 06.12.2019 11:00:00 - 12.12.2019 11:00:00 (CET)Cartagena, Spain (8434): wind direction: 06.12.2019 11:00:00 - 12.12.2019 11:00:00 (CET)Cartagena, Spain (8434): precipitation: 06.12.2019 11:00:00 - 12.12.2019 11:00:00 (CET)
Date & Time tt [°C] td [°C] ff [km/h] ff [kn] fx [km/h] fx [kn] dd rr [mm]
12.12.2019 11:00:00 13,8 4,1 3 1 8 5 E 0,0
12.12.2019 10:00:00 12,5 3,5 3 1 7 4 NNE 0,0
12.12.2019 09:00:00 11,2 2,3 2 1 9 5 ENE 0,0
12.12.2019 08:00:00 11,5 2,3 3 1 - - SE -
12.12.2019 07:00:00 11,8 1,7 5 3 12 7 NW -
12.12.2019 06:00:00 11,1 1,6 4 2 8 5 NNE 0,0
12.12.2019 05:00:00 10,8 1,4 5 3 9 5 NW 0,0
12.12.2019 04:00:00 11,6 1,8 2 1 18 10 NE 0,0
12.12.2019 03:00:00 12,9 2,2 5 3 18 10 NW 0,0
12.12.2019 02:00:00 13,3 2,3 9 5 26 14 NW 0,0
12.12.2019 01:00:00 13,5 3,0 7 4 22 12 NNW -
12.12.2019 00:00:00 13,7 3,2 6 3 22 12 WNW 0,0
11.12.2019 23:00:00 14,4 3,6 7 4 36 19 NW 0,0
11.12.2019 22:00:00 14,4 5,2 5 3 34 18 NNW 0,0
11.12.2019 21:00:00 15,6 5,8 14 7 32 17 NW 0,0
11.12.2019 20:00:00 16,0 6,4 6 4 24 13 NNW 0,0
11.12.2019 19:00:00 16,4 8,4 10 6 23 12 NNW -
11.12.2019 18:00:00 15,5 10,5 3 1 13 7 S 0,0
11.12.2019 17:00:00 16,1 10,6 4 2 - - S -
11.12.2019 16:00:00 16,4 8,9 10 5 19 10 ESE 0,0
11.12.2019 15:00:00 17,3 8,2 4 2 17 9 SSW 0,0
11.12.2019 14:00:00 16,2 7,2 9 5 19 11 SW 0,0
11.12.2019 13:00:00 16,2 9,6 8 4 18 10 S -
11.12.2019 12:00:00 15,6 10,2 1 1 7 4 SSE 0,0
11.12.2019 11:00:00 12,0 6,9 2 1 12 7 NNW 0,0
11.12.2019 10:00:00 9,5 5,5 0 0 6 3 ENE 0,0
11.12.2019 09:00:00 7,4 4,0 1 0 6 3 NNW 0,0
11.12.2019 08:00:00 7,7 4,5 1 1 6 3 ENE 0,0
11.12.2019 07:00:00 6,9 3,7 0 0 4 2 NNW -
11.12.2019 06:00:00 7,3 4,3 1 1 4 2 WNW 0,0
11.12.2019 05:00:00 7,7 4,7 1 0 4 2 NNW 0,0
11.12.2019 04:00:00 8,9 5,8 0 0 - - W -
11.12.2019 03:00:00 9,2 6,1 1 1 5 3 WNW 0,0
11.12.2019 02:00:00 9,5 6,2 1 0 4 2 WNW 0,0
11.12.2019 01:00:00 10,2 7,1 1 1 9 5 NE -
11.12.2019 00:00:00 10,6 7,3 0 0 - - WNW -
10.12.2019 23:00:00 10,8 7,1 1 1 4 2 NW 0,0
10.12.2019 22:00:00 11,2 7,5 1 1 5 3 NW 0,0
10.12.2019 21:00:00 13,6 10,8 3 2 10 5 SSE 0,0
10.12.2019 20:00:00 14,5 11,3 4 2 8 4 SW 0,0
10.12.2019 19:00:00 15,2 10,8 3 1 11 6 WSW -
10.12.2019 18:00:00 16,6 9,8 4 2 11 6 S 0,0
10.12.2019 17:00:00 17,8 7,0 4 2 14 7 S 0,0
10.12.2019 16:00:00 19,8 2,7 5 3 13 7 NE 0,0
10.12.2019 15:00:00 20,6 3,4 6 3 16 9 N 0,0
10.12.2019 14:00:00 19,6 3,8 2 1 10 5 WSW 0,0
10.12.2019 13:00:00 18,5 3,2 4 2 10 6 E -
10.12.2019 12:00:00 18,0 2,7 3 2 8 4 SE 0,0
10.12.2019 11:00:00 15,6 3,1 4 2 9 5 E 0,0
10.12.2019 10:00:00 12,7 3,4 3 2 7 4 N 0,0
10.12.2019 09:00:00 11,1 2,2 2 1 10 5 NNE 0,0
10.12.2019 08:00:00 12,2 2,1 4 2 - - NE -
10.12.2019 07:00:00 12,1 2,6 1 1 7 4 SSE -
10.12.2019 06:00:00 12,3 2,5 1 1 8 5 ESE 0,0
10.12.2019 05:00:00 12,9 2,5 5 3 11 6 WNW 0,0
10.12.2019 04:00:00 13,6 3,1 2 1 13 7 N 0,0
10.12.2019 03:00:00 13,9 3,4 5 3 11 6 NNW 0,0
10.12.2019 02:00:00 14,8 4,2 3 2 18 10 NNE 0,0
10.12.2019 01:00:00 15,1 3,6 8 4 17 9 NNW -
10.12.2019 00:00:00 15,5 3,0 5 3 18 10 NW 0,0
09.12.2019 23:00:00 16,1 3,5 8 4 23 13 N 0,0
09.12.2019 22:00:00 13,8 7,3 4 2 9 5 W 0,0
09.12.2019 21:00:00 14,5 7,8 1 1 11 6 N 0,0
09.12.2019 20:00:00 16,1 8,1 0 0 11 6 W 0,0
09.12.2019 19:00:00 16,5 10,1 1 1 13 7 NW -
09.12.2019 18:00:00 17,5 8,6 6 3 21 12 SE 0,0
09.12.2019 17:00:00 18,9 6,4 9 5 19 10 SW 0,0
09.12.2019 16:00:00 21,4 4,1 3 2 17 9 W 0,0
09.12.2019 15:00:00 21,0 3,3 9 5 - - W -
09.12.2019 14:00:00 20,9 6,5 7 4 17 9 NW 0,0
09.12.2019 13:00:00 19,7 7,1 4 2 17 9 WSW -
09.12.2019 12:00:00 18,3 7,7 3 2 13 7 WNW 0,0
09.12.2019 11:00:00 16,7 8,2 4 2 10 5 NE 0,0
09.12.2019 10:00:00 15,7 8,0 3 2 13 7 NNW 0,0
09.12.2019 09:00:00 14,7 8,2 1 0 23 12 WNW 0,0
09.12.2019 08:00:00 15,5 8,0 10 6 26 14 N 0,0
09.12.2019 07:00:00 16,3 8,5 11 6 23 13 N -
09.12.2019 06:00:00 15,6 8,4 2 1 11 6 NNW 0,0
09.12.2019 05:00:00 16,9 8,3 6 3 20 11 NW 0,0
09.12.2019 04:00:00 15,8 8,1 5 3 13 7 N 0,0
09.12.2019 03:00:00 13,3 9,7 1 1 8 5 NW 0,0
09.12.2019 02:00:00 12,6 10,5 1 1 8 4 NE 0,0
09.12.2019 01:00:00 12,7 10,4 1 1 6 4 NE -
09.12.2019 00:00:00 12,6 10,2 0 0 3 2 NNE 0,0
08.12.2019 23:00:00 12,5 9,9 0 0 4 2 NNW 0,0
08.12.2019 22:00:00 13,5 10,3 0 0 4 2 N 0,0
08.12.2019 21:00:00 14,5 11,1 1 0 13 7 WNW 0,0
08.12.2019 20:00:00 15,6 12,2 4 2 18 10 S 0,0
08.12.2019 19:00:00 15,7 11,9 9 5 22 12 SSW -
08.12.2019 18:00:00 16,0 10,8 9 5 23 12 SSW 0,0
08.12.2019 17:00:00 16,4 11,3 9 5 22 12 S 0,0
08.12.2019 16:00:00 16,5 9,7 10 6 21 11 S 0,0
08.12.2019 15:00:00 17,1 9,5 7 4 18 10 SSW 0,0
08.12.2019 14:00:00 16,8 9,7 4 2 15 8 S 0,0
08.12.2019 13:00:00 15,9 10,0 4 2 9 5 SSE -
08.12.2019 12:00:00 15,4 10,0 2 1 7 4 ESE 0,0
08.12.2019 11:00:00 12,7 10,8 0 0 - - N -
08.12.2019 10:00:00 10,1 8,9 0 0 3 2 ENE 0,0
08.12.2019 09:00:00 8,0 6,8 0 0 3 2 NNW 0,0
08.12.2019 08:00:00 8,6 7,4 1 0 3 2 NNW 0,1
08.12.2019 07:00:00 8,7 7,5 0 0 4 2 NE -
08.12.2019 06:00:00 8,7 7,5 0 0 4 2 N 0,0
08.12.2019 05:00:00 9,0 7,6 1 0 3 2 NW 0,0
08.12.2019 04:00:00 9,7 8,3 0 0 5 3 NNW 0,0
08.12.2019 03:00:00 10,3 8,7 0 0 4 2 NW 0,0
08.12.2019 02:00:00 10,5 8,9 1 1 4 2 ENE 0,0
08.12.2019 01:00:00 10,7 9,0 0 0 4 2 WNW -
08.12.2019 00:00:00 11,6 9,7 1 1 5 3 NE 0,0
07.12.2019 23:00:00 12,1 9,8 0 0 3 1 N 0,0
07.12.2019 22:00:00 12,6 10,2 0 0 - - N -
07.12.2019 21:00:00 13,2 10,4 0 0 8 4 NNW 0,0
07.12.2019 20:00:00 13,7 10,5 2 1 8 5 NNW 0,0
07.12.2019 19:00:00 14,3 9,9 3 2 14 7 NNE -
07.12.2019 18:00:00 15,3 9,0 6 3 13 7 NNE 0,0
07.12.2019 17:00:00 16,2 9,2 5 3 15 8 NNE 0,0
07.12.2019 16:00:00 16,3 9,0 7 4 18 10 N 0,0
07.12.2019 15:00:00 16,4 9,4 8 5 18 10 N 0,0
07.12.2019 14:00:00 16,3 9,5 7 4 17 9 NNE 0,0
07.12.2019 13:00:00 16,0 9,7 10 5 18 10 N -
07.12.2019 12:00:00 15,2 9,8 7 4 14 8 N 0,0
07.12.2019 11:00:00 14,0 9,8 5 3 17 9 NNW 0,0
07.12.2019 10:00:00 12,0 9,4 4 2 - - NNW -
07.12.2019 09:00:00 11,2 8,6 4 2 14 7 NW 0,0
07.12.2019 08:00:00 11,1 8,5 8 4 17 9 N 0,0
07.12.2019 07:00:00 11,7 9,1 6 4 13 7 N -
07.12.2019 06:00:00 12,1 9,5 6 3 16 8 NNW 0,0
07.12.2019 05:00:00 12,7 10,1 5 3 16 8 NNW 0,0
07.12.2019 04:00:00 13,1 10,6 6 3 - - NNW -
07.12.2019 03:00:00 13,2 11,1 6 3 14 8 NNW 0,0
07.12.2019 02:00:00 12,7 10,6 6 4 13 7 NNW 0,0
07.12.2019 01:00:00 12,9 10,6 4 2 12 7 NW -
07.12.2019 00:00:00 13,4 10,8 6 3 14 7 NNW 0,0
06.12.2019 23:00:00 13,7 10,9 5 3 16 9 NNW 0,0
06.12.2019 22:00:00 14,1 10,9 5 3 15 8 NNW 0,0
06.12.2019 21:00:00 14,4 11,0 5 3 13 7 N 0,0
06.12.2019 20:00:00 14,9 11,5 3 2 9 5 N 0,0
06.12.2019 19:00:00 15,0 11,2 5 3 21 11 N -
06.12.2019 18:00:00 15,0 11,0 8 5 24 13 ENE 0,0
06.12.2019 17:00:00 15,4 10,6 9 5 27 15 NE 0,0
06.12.2019 16:00:00 15,8 9,9 8 5 25 13 NE 0,0
06.12.2019 15:00:00 15,9 10,0 10 5 25 13 NE 0,0
06.12.2019 14:00:00 16,1 10,6 6 3 22 12 NE 0,0
06.12.2019 13:00:00 15,2 10,6 8 4 23 12 NNE -
06.12.2019 12:00:00 14,8 11,4 8 5 16 9 N 0,0
06.12.2019 11:00:00 13,6 11,3 6 3 11 6 N 0,0

tt = temperature
td = dewpoint
ff = wind speed
fx = gusts
dd = wind direction
rr = precipitation

Next stations